Aérodrome :
LOGIN :

S'inscrire | Disclaimer

   EN    FR    IT 

 










Légende :    VFR   VFR Marginal   IFR   IFR Intensif   IFR Très Intensif
Visi : 
Plafond : 
>= 8 km
>= 3000ft
5 à 8 km
1000 à 3000 ft
1500m à 5 km
500 à 1000 ft
800 à 1500m
200 à 500 ft
< 800m
< 200 ft
Symboles :   Orages  Brouillard  Fortes neiges  Fortes précipitations  Vent > 20 kt
SIGMETs :   Divers  Orages  Givrage  Turbulence  Onde Orograph.  Cendres Volcan.






- Altitude de l'aérodrome : 13 ft
- Code IATA : LYX


EGMD - Lydd

DERNIER METAR :
  • 200350Z AUTO 03004KT 4100 BR NCD M00/M01 Q1018

METARs EXPIRÉS :
  • 200320Z AUTO 34003KT 6000 NCD 02/02 Q1018
  • 200250Z AUTO 36004KT 1600 BR NCD 00/M00 Q1018
  • 200220Z AUTO 32005KT 2200 BR NCD 02/01 Q1018
  • 200150Z AUTO 32005KT 3800 BR NCD 03/02 Q1019
  • 200120Z AUTO 35003KT 4300 BR NCD 03/03 Q1019

TAF TAF EGMD
Valide du 20 à 03h jusqu'au 20 à 12h UTC


200158Z 2003/2012 32003KT 9999 FEW045
TEMPO 2003/2009 4000 BR
PROB30 2003/2008 0300 FG BKN000
ATIS : +44 1797 322 422



MET'MAP, la Météo Aéronautique d'un coup d'oeil ! - Copyright ORBIFLY Décembre 2007 - Disclaimer

ORBIFLY MET'MAP TEAM :

Programmation & Développement : Alexandra Zaïnal
Sur une idée originale de : Baudouin d'Aumeries
Assistance à la programmation : Marc-Olivier Méhu
Soutien technique & logistique : Manuel Goepfert

Contact : metmap@orbifly.com




SOURCES & CREDITS :

   NOAA